Medford, Minnesota
Current Conditions -  °F | °C
As of 6:15 PM on Wednesday 28 Jan 2015 (Local Time) from KOWA Reporting Station
Haze Haze  
Wind Chill: 28°   Ceiling: Unl
Heat Index: 34°   Visibility: 5mi
Dew Point: 30°   Wind: 7mph
Humidity: 87%   Direction: 150°SSE
Pressure: 29.78"   Gusts: NA
Location:  44.17°N, 93.25°W
Report Text: KOWA 290015Z AUTO 15006KT 5SM BR CLR 01/M01 A2978 RMK AO2
Loading
Personal Weather Stations






























Interactive Weather Map New forecast layout! Learn more

10-Day Weather Forecast

Advertisements
Track Severe Weather on mobile